sensor_id;sensor_type;location;lat;lon;timestamp;P1;durP1;ratioP1;P2;durP2;ratioP2
32780;SDS011;19136;47.032;15.502;2024-01-30T00:01:48;54.53;;;23.20;;
32780;SDS011;19136;47.032;15.502;2024-01-30T00:04:13;50.65;;;21.95;;
32780;SDS011;19136;47.032;15.502;2024-01-30T00:06:38;55.47;;;23.23;;
32780;SDS011;19136;47.032;15.502;2024-01-30T00:09:04;52.47;;;23.35;;
32780;SDS011;19136;47.032;15.502;2024-01-30T00:11:30;66.68;;;24.83;;
32780;SDS011;19136;47.032;15.502;2024-01-30T00:13:55;53.67;;;24.20;;
32780;SDS011;19136;47.032;15.502;2024-01-30T00:16:24;58.90;;;24.10;;
32780;SDS011;19136;47.032;15.502;2024-01-30T00:18:53;53.15;;;23.38;;
32780;SDS011;19136;47.032;15.502;2024-01-30T00:21:19;62.35;;;24.63;;
32780;SDS011;19136;47.032;15.502;2024-01-30T00:23:44;54.30;;;23.05;;
32780;SDS011;19136;47.032;15.502;2024-01-30T00:26:10;57.35;;;24.15;;
32780;SDS011;19136;47.032;15.502;2024-01-30T00:28:37;55.42;;;24.45;;
32780;SDS011;19136;47.032;15.502;2024-01-30T00:31:02;63.05;;;25.33;;
32780;SDS011;19136;47.032;15.502;2024-01-30T00:33:28;65.93;;;25.95;;
32780;SDS011;19136;47.032;15.502;2024-01-30T00:35:53;54.70;;;23.38;;
32780;SDS011;19136;47.032;15.502;2024-01-30T00:38:19;53.80;;;23.95;;
32780;SDS011;19136;47.032;15.502;2024-01-30T00:40:44;64.03;;;24.70;;
32780;SDS011;19136;47.032;15.502;2024-01-30T00:43:09;51.08;;;22.23;;
32780;SDS011;19136;47.032;15.502;2024-01-30T00:45:35;55.92;;;22.42;;
32780;SDS011;19136;47.032;15.502;2024-01-30T00:48:01;56.70;;;21.55;;
32780;SDS011;19136;47.032;15.502;2024-01-30T00:50:26;51.28;;;21.13;;
32780;SDS011;19136;47.032;15.502;2024-01-30T00:52:52;47.25;;;20.58;;
32780;SDS011;19136;47.032;15.502;2024-01-30T00:55:17;48.33;;;22.42;;
32780;SDS011;19136;47.032;15.502;2024-01-30T00:57:43;53.35;;;22.00;;
32780;SDS011;19136;47.032;15.502;2024-01-30T01:00:08;50.55;;;22.17;;
32780;SDS011;19136;47.032;15.502;2024-01-30T01:02:34;51.38;;;22.15;;
32780;SDS011;19136;47.032;15.502;2024-01-30T01:05:00;52.80;;;21.25;;
32780;SDS011;19136;47.032;15.502;2024-01-30T01:07:25;49.08;;;21.15;;
32780;SDS011;19136;47.032;15.502;2024-01-30T01:09:51;47.78;;;21.42;;
32780;SDS011;19136;47.032;15.502;2024-01-30T01:12:17;47.28;;;20.90;;
32780;SDS011;19136;47.032;15.502;2024-01-30T01:14:43;51.10;;;20.50;;
32780;SDS011;19136;47.032;15.502;2024-01-30T01:17:08;44.67;;;21.10;;
32780;SDS011;19136;47.032;15.502;2024-01-30T01:19:34;49.40;;;19.63;;
32780;SDS011;19136;47.032;15.502;2024-01-30T01:21:59;52.33;;;21.63;;
32780;SDS011;19136;47.032;15.502;2024-01-30T01:24:24;49.42;;;21.45;;
32780;SDS011;19136;47.032;15.502;2024-01-30T01:26:50;46.85;;;21.15;;
32780;SDS011;19136;47.032;15.502;2024-01-30T01:29:15;53.08;;;21.83;;
32780;SDS011;19136;47.032;15.502;2024-01-30T01:31:41;50.88;;;20.83;;
32780;SDS011;19136;47.032;15.502;2024-01-30T01:34:11;51.70;;;21.33;;
32780;SDS011;19136;47.032;15.502;2024-01-30T01:36:36;53.15;;;20.70;;
32780;SDS011;19136;47.032;15.502;2024-01-30T01:39:02;48.35;;;20.80;;
32780;SDS011;19136;47.032;15.502;2024-01-30T01:41:30;52.90;;;20.45;;
32780;SDS011;19136;47.032;15.502;2024-01-30T01:43:57;46.83;;;20.75;;
32780;SDS011;19136;47.032;15.502;2024-01-30T01:46:22;54.05;;;21.15;;
32780;SDS011;19136;47.032;15.502;2024-01-30T01:48:48;53.22;;;22.98;;
32780;SDS011;19136;47.032;15.502;2024-01-30T01:51:14;44.85;;;20.77;;
32780;SDS011;19136;47.032;15.502;2024-01-30T01:53:39;45.10;;;21.13;;
32780;SDS011;19136;47.032;15.502;2024-01-30T01:56:05;51.85;;;20.70;;
32780;SDS011;19136;47.032;15.502;2024-01-30T01:58:31;50.20;;;22.55;;
32780;SDS011;19136;47.032;15.502;2024-01-30T02:00:57;56.65;;;21.10;;
32780;SDS011;19136;47.032;15.502;2024-01-30T02:03:23;51.20;;;21.67;;
32780;SDS011;19136;47.032;15.502;2024-01-30T02:05:50;52.05;;;21.30;;
32780;SDS011;19136;47.032;15.502;2024-01-30T02:08:16;42.83;;;19.83;;
32780;SDS011;19136;47.032;15.502;2024-01-30T02:10:41;49.40;;;20.80;;
32780;SDS011;19136;47.032;15.502;2024-01-30T02:13:15;47.05;;;19.45;;
32780;SDS011;19136;47.032;15.502;2024-01-30T02:15:48;52.35;;;20.27;;
32780;SDS011;19136;47.032;15.502;2024-01-30T02:18:14;51.78;;;20.70;;
32780;SDS011;19136;47.032;15.502;2024-01-30T02:20:41;48.70;;;20.55;;
32780;SDS011;19136;47.032;15.502;2024-01-30T02:23:08;48.38;;;20.52;;
32780;SDS011;19136;47.032;15.502;2024-01-30T02:25:36;51.63;;;19.95;;
32780;SDS011;19136;47.032;15.502;2024-01-30T02:28:03;55.22;;;21.60;;
32780;SDS011;19136;47.032;15.502;2024-01-30T02:30:29;59.00;;;23.70;;
32780;SDS011;19136;47.032;15.502;2024-01-30T02:32:54;50.13;;;22.90;;
32780;SDS011;19136;47.032;15.502;2024-01-30T02:35:20;46.65;;;22.42;;
32780;SDS011;19136;47.032;15.502;2024-01-30T02:37:47;48.00;;;20.30;;
32780;SDS011;19136;47.032;15.502;2024-01-30T02:40:12;51.15;;;22.83;;
32780;SDS011;19136;47.032;15.502;2024-01-30T02:42:43;49.22;;;21.75;;
32780;SDS011;19136;47.032;15.502;2024-01-30T02:45:09;56.10;;;22.35;;
32780;SDS011;19136;47.032;15.502;2024-01-30T02:47:35;46.90;;;21.42;;
32780;SDS011;19136;47.032;15.502;2024-01-30T02:50:04;47.72;;;20.00;;
32780;SDS011;19136;47.032;15.502;2024-01-30T02:52:29;45.67;;;21.17;;
32780;SDS011;19136;47.032;15.502;2024-01-30T02:54:55;50.70;;;22.73;;
32780;SDS011;19136;47.032;15.502;2024-01-30T02:57:20;46.55;;;20.33;;
32780;SDS011;19136;47.032;15.502;2024-01-30T02:59:46;54.55;;;22.00;;
32780;SDS011;19136;47.032;15.502;2024-01-30T03:02:11;54.35;;;22.30;;
32780;SDS011;19136;47.032;15.502;2024-01-30T03:04:37;47.03;;;20.15;;
32780;SDS011;19136;47.032;15.502;2024-01-30T03:07:02;45.95;;;20.40;;
32780;SDS011;19136;47.032;15.502;2024-01-30T03:09:28;43.13;;;20.85;;
32780;SDS011;19136;47.032;15.502;2024-01-30T03:11:54;49.67;;;20.75;;
32780;SDS011;19136;47.032;15.502;2024-01-30T03:14:20;48.50;;;21.48;;
32780;SDS011;19136;47.032;15.502;2024-01-30T03:16:45;49.90;;;20.23;;
32780;SDS011;19136;47.032;15.502;2024-01-30T03:19:11;43.47;;;20.33;;
32780;SDS011;19136;47.032;15.502;2024-01-30T03:21:36;46.10;;;20.52;;
32780;SDS011;19136;47.032;15.502;2024-01-30T03:24:02;43.80;;;18.58;;
32780;SDS011;19136;47.032;15.502;2024-01-30T03:26:28;49.03;;;19.33;;
32780;SDS011;19136;47.032;15.502;2024-01-30T03:28:53;51.35;;;19.38;;
32780;SDS011;19136;47.032;15.502;2024-01-30T03:31:19;44.40;;;19.52;;
32780;SDS011;19136;47.032;15.502;2024-01-30T03:33:47;40.80;;;20.10;;
32780;SDS011;19136;47.032;15.502;2024-01-30T03:36:14;44.08;;;20.20;;
32780;SDS011;19136;47.032;15.502;2024-01-30T03:38:40;44.03;;;19.10;;
32780;SDS011;19136;47.032;15.502;2024-01-30T03:41:07;56.05;;;19.95;;
32780;SDS011;19136;47.032;15.502;2024-01-30T03:43:33;45.75;;;19.08;;
32780;SDS011;19136;47.032;15.502;2024-01-30T03:45:59;43.53;;;19.92;;
32780;SDS011;19136;47.032;15.502;2024-01-30T03:48:24;50.78;;;21.02;;
32780;SDS011;19136;47.032;15.502;2024-01-30T03:50:51;56.10;;;22.65;;
32780;SDS011;19136;47.032;15.502;2024-01-30T03:53:17;46.88;;;19.33;;
32780;SDS011;19136;47.032;15.502;2024-01-30T03:55:42;41.25;;;18.63;;
32780;SDS011;19136;47.032;15.502;2024-01-30T03:58:08;43.15;;;18.83;;
32780;SDS011;19136;47.032;15.502;2024-01-30T04:00:33;43.83;;;19.27;;
32780;SDS011;19136;47.032;15.502;2024-01-30T04:02:59;38.75;;;18.67;;
32780;SDS011;19136;47.032;15.502;2024-01-30T04:05:24;41.28;;;19.00;;
32780;SDS011;19136;47.032;15.502;2024-01-30T04:07:50;38.92;;;18.48;;
32780;SDS011;19136;47.032;15.502;2024-01-30T04:10:16;45.13;;;20.40;;
32780;SDS011;19136;47.032;15.502;2024-01-30T04:12:41;53.13;;;20.20;;
32780;SDS011;19136;47.032;15.502;2024-01-30T04:15:08;45.85;;;19.38;;
32780;SDS011;19136;47.032;15.502;2024-01-30T04:17:33;48.15;;;19.85;;
32780;SDS011;19136;47.032;15.502;2024-01-30T04:19:59;41.72;;;19.55;;
32780;SDS011;19136;47.032;15.502;2024-01-30T04:22:26;49.95;;;19.95;;
32780;SDS011;19136;47.032;15.502;2024-01-30T04:24:52;46.72;;;19.92;;
32780;SDS011;19136;47.032;15.502;2024-01-30T04:27:17;39.72;;;19.70;;
32780;SDS011;19136;47.032;15.502;2024-01-30T04:29:43;50.63;;;19.67;;
32780;SDS011;19136;47.032;15.502;2024-01-30T04:32:11;50.53;;;19.80;;
32780;SDS011;19136;47.032;15.502;2024-01-30T04:34:37;48.63;;;21.38;;
32780;SDS011;19136;47.032;15.502;2024-01-30T04:37:04;50.53;;;19.88;;
32780;SDS011;19136;47.032;15.502;2024-01-30T04:39:29;45.15;;;20.20;;
32780;SDS011;19136;47.032;15.502;2024-01-30T04:41:56;42.40;;;21.10;;
32780;SDS011;19136;47.032;15.502;2024-01-30T04:44:21;41.90;;;20.05;;
32780;SDS011;19136;47.032;15.502;2024-01-30T04:46:47;51.25;;;21.33;;
32780;SDS011;19136;47.032;15.502;2024-01-30T04:49:13;46.83;;;21.10;;
32780;SDS011;19136;47.032;15.502;2024-01-30T04:51:38;46.22;;;19.58;;
32780;SDS011;19136;47.032;15.502;2024-01-30T04:54:04;40.17;;;19.98;;
32780;SDS011;19136;47.032;15.502;2024-01-30T04:56:29;43.10;;;20.40;;
32780;SDS011;19136;47.032;15.502;2024-01-30T04:58:56;48.15;;;20.13;;
32780;SDS011;19136;47.032;15.502;2024-01-30T05:01:22;44.50;;;19.38;;
32780;SDS011;19136;47.032;15.502;2024-01-30T05:03:48;40.33;;;20.42;;
32780;SDS011;19136;47.032;15.502;2024-01-30T05:06:14;44.95;;;21.38;;
32780;SDS011;19136;47.032;15.502;2024-01-30T05:08:49;44.92;;;19.85;;
32780;SDS011;19136;47.032;15.502;2024-01-30T05:11:14;54.85;;;21.33;;
32780;SDS011;19136;47.032;15.502;2024-01-30T05:13:43;53.90;;;22.17;;
32780;SDS011;19136;47.032;15.502;2024-01-30T05:16:08;52.85;;;21.90;;
32780;SDS011;19136;47.032;15.502;2024-01-30T05:18:34;57.08;;;24.05;;
32780;SDS011;19136;47.032;15.502;2024-01-30T05:21:00;47.85;;;20.58;;
32780;SDS011;19136;47.032;15.502;2024-01-30T05:23:25;49.47;;;21.70;;
32780;SDS011;19136;47.032;15.502;2024-01-30T05:25:51;49.00;;;20.60;;
32780;SDS011;19136;47.032;15.502;2024-01-30T05:28:17;50.78;;;21.23;;
32780;SDS011;19136;47.032;15.502;2024-01-30T05:30:42;47.03;;;21.35;;
32780;SDS011;19136;47.032;15.502;2024-01-30T05:33:08;51.90;;;20.10;;
32780;SDS011;19136;47.032;15.502;2024-01-30T05:35:37;49.75;;;20.83;;
32780;SDS011;19136;47.032;15.502;2024-01-30T05:38:03;52.45;;;21.67;;
32780;SDS011;19136;47.032;15.502;2024-01-30T05:40:28;47.72;;;22.05;;
32780;SDS011;19136;47.032;15.502;2024-01-30T05:42:54;47.75;;;21.88;;
32780;SDS011;19136;47.032;15.502;2024-01-30T05:45:19;52.05;;;23.05;;
32780;SDS011;19136;47.032;15.502;2024-01-30T05:47:45;58.22;;;25.02;;
32780;SDS011;19136;47.032;15.502;2024-01-30T05:50:11;54.90;;;23.98;;
32780;SDS011;19136;47.032;15.502;2024-01-30T05:52:36;56.95;;;23.10;;
32780;SDS011;19136;47.032;15.502;2024-01-30T05:55:02;54.03;;;23.23;;
32780;SDS011;19136;47.032;15.502;2024-01-30T05:57:28;59.47;;;24.30;;
32780;SDS011;19136;47.032;15.502;2024-01-30T05:59:54;57.03;;;24.85;;
32780;SDS011;19136;47.032;15.502;2024-01-30T06:02:22;60.08;;;25.58;;
32780;SDS011;19136;47.032;15.502;2024-01-30T06:04:48;57.13;;;23.33;;
32780;SDS011;19136;47.032;15.502;2024-01-30T06:07:13;58.00;;;25.25;;
32780;SDS011;19136;47.032;15.502;2024-01-30T06:09:39;56.83;;;25.25;;
32780;SDS011;19136;47.032;15.502;2024-01-30T06:12:06;59.22;;;24.25;;
32780;SDS011;19136;47.032;15.502;2024-01-30T06:14:31;58.72;;;22.60;;
32780;SDS011;19136;47.032;15.502;2024-01-30T06:16:58;50.97;;;21.17;;
32780;SDS011;19136;47.032;15.502;2024-01-30T06:19:24;54.50;;;21.27;;
32780;SDS011;19136;47.032;15.502;2024-01-30T06:21:50;53.78;;;21.15;;
32780;SDS011;19136;47.032;15.502;2024-01-30T06:24:15;49.55;;;23.45;;
32780;SDS011;19136;47.032;15.502;2024-01-30T06:26:41;55.22;;;23.27;;
32780;SDS011;19136;47.032;15.502;2024-01-30T06:29:07;48.05;;;21.10;;
32780;SDS011;19136;47.032;15.502;2024-01-30T06:31:32;52.33;;;23.55;;
32780;SDS011;19136;47.032;15.502;2024-01-30T06:33:58;59.00;;;23.40;;
32780;SDS011;19136;47.032;15.502;2024-01-30T06:36:24;54.35;;;23.33;;
32780;SDS011;19136;47.032;15.502;2024-01-30T06:38:49;57.58;;;23.65;;
32780;SDS011;19136;47.032;15.502;2024-01-30T06:41:15;61.28;;;26.02;;
32780;SDS011;19136;47.032;15.502;2024-01-30T06:43:40;58.47;;;27.52;;
32780;SDS011;19136;47.032;15.502;2024-01-30T06:46:06;64.10;;;25.50;;
32780;SDS011;19136;47.032;15.502;2024-01-30T06:48:31;59.88;;;24.90;;
32780;SDS011;19136;47.032;15.502;2024-01-30T06:50:57;59.30;;;24.58;;
32780;SDS011;19136;47.032;15.502;2024-01-30T06:53:26;55.33;;;22.65;;
32780;SDS011;19136;47.032;15.502;2024-01-30T06:55:51;61.88;;;24.90;;
32780;SDS011;19136;47.032;15.502;2024-01-30T06:58:17;55.45;;;23.42;;
32780;SDS011;19136;47.032;15.502;2024-01-30T07:00:43;57.53;;;25.20;;
32780;SDS011;19136;47.032;15.502;2024-01-30T07:03:08;56.78;;;25.67;;
32780;SDS011;19136;47.032;15.502;2024-01-30T07:05:34;50.05;;;23.27;;
32780;SDS011;19136;47.032;15.502;2024-01-30T07:08:00;58.88;;;23.95;;
32780;SDS011;19136;47.032;15.502;2024-01-30T07:10:26;58.30;;;23.38;;
32780;SDS011;19136;47.032;15.502;2024-01-30T07:12:54;54.15;;;23.67;;
32780;SDS011;19136;47.032;15.502;2024-01-30T07:15:19;62.95;;;24.73;;
32780;SDS011;19136;47.032;15.502;2024-01-30T07:17:45;58.42;;;26.45;;
32780;SDS011;19136;47.032;15.502;2024-01-30T07:20:11;65.45;;;27.83;;
32780;SDS011;19136;47.032;15.502;2024-01-30T07:22:39;59.75;;;26.35;;
32780;SDS011;19136;47.032;15.502;2024-01-30T07:25:05;62.95;;;27.48;;
32780;SDS011;19136;47.032;15.502;2024-01-30T07:27:31;59.08;;;26.67;;
32780;SDS011;19136;47.032;15.502;2024-01-30T07:29:58;71.80;;;34.58;;
32780;SDS011;19136;47.032;15.502;2024-01-30T07:32:24;65.93;;;28.48;;
32780;SDS011;19136;47.032;15.502;2024-01-30T07:34:49;57.35;;;25.98;;
32780;SDS011;19136;47.032;15.502;2024-01-30T07:37:16;56.65;;;25.77;;
32780;SDS011;19136;47.032;15.502;2024-01-30T07:39:42;55.47;;;24.75;;
32780;SDS011;19136;47.032;15.502;2024-01-30T07:42:08;59.30;;;29.08;;
32780;SDS011;19136;47.032;15.502;2024-01-30T07:44:36;69.65;;;34.10;;
32780;SDS011;19136;47.032;15.502;2024-01-30T07:47:02;68.13;;;33.13;;
32780;SDS011;19136;47.032;15.502;2024-01-30T07:49:28;63.40;;;29.67;;
32780;SDS011;19136;47.032;15.502;2024-01-30T07:51:53;58.70;;;26.55;;
32780;SDS011;19136;47.032;15.502;2024-01-30T07:54:19;61.15;;;27.40;;
32780;SDS011;19136;47.032;15.502;2024-01-30T07:56:44;60.83;;;27.90;;
32780;SDS011;19136;47.032;15.502;2024-01-30T07:59:10;57.15;;;25.80;;
32780;SDS011;19136;47.032;15.502;2024-01-30T08:01:36;58.47;;;28.83;;
32780;SDS011;19136;47.032;15.502;2024-01-30T08:04:02;51.15;;;24.80;;
32780;SDS011;19136;47.032;15.502;2024-01-30T08:06:27;46.17;;;21.50;;
32780;SDS011;19136;47.032;15.502;2024-01-30T08:08:53;57.45;;;24.80;;
32780;SDS011;19136;47.032;15.502;2024-01-30T08:11:22;58.38;;;28.40;;
32780;SDS011;19136;47.032;15.502;2024-01-30T08:13:53;82.32;;;34.70;;
32780;SDS011;19136;47.032;15.502;2024-01-30T08:16:19;62.03;;;28.08;;
32780;SDS011;19136;47.032;15.502;2024-01-30T08:18:47;48.10;;;22.67;;
32780;SDS011;19136;47.032;15.502;2024-01-30T08:21:13;47.55;;;21.75;;
32780;SDS011;19136;47.032;15.502;2024-01-30T08:23:39;53.85;;;26.05;;
32780;SDS011;19136;47.032;15.502;2024-01-30T08:26:04;44.83;;;22.25;;
32780;SDS011;19136;47.032;15.502;2024-01-30T08:28:30;48.45;;;22.20;;
32780;SDS011;19136;47.032;15.502;2024-01-30T08:30:55;41.60;;;19.77;;
32780;SDS011;19136;47.032;15.502;2024-01-30T08:33:22;40.53;;;19.77;;
32780;SDS011;19136;47.032;15.502;2024-01-30T08:35:51;46.10;;;21.20;;
32780;SDS011;19136;47.032;15.502;2024-01-30T08:38:16;47.30;;;21.52;;
32780;SDS011;19136;47.032;15.502;2024-01-30T08:40:42;43.53;;;20.55;;
32780;SDS011;19136;47.032;15.502;2024-01-30T08:43:07;49.30;;;22.83;;
32780;SDS011;19136;47.032;15.502;2024-01-30T08:45:35;45.47;;;22.67;;
32780;SDS011;19136;47.032;15.502;2024-01-30T08:48:01;39.58;;;21.20;;
32780;SDS011;19136;47.032;15.502;2024-01-30T08:50:26;40.28;;;20.75;;
32780;SDS011;19136;47.032;15.502;2024-01-30T08:52:54;41.08;;;21.83;;
32780;SDS011;19136;47.032;15.502;2024-01-30T08:55:20;42.72;;;20.85;;
32780;SDS011;19136;47.032;15.502;2024-01-30T08:57:46;45.72;;;22.58;;
32780;SDS011;19136;47.032;15.502;2024-01-30T09:00:12;42.42;;;19.17;;
32780;SDS011;19136;47.032;15.502;2024-01-30T09:02:37;39.90;;;18.38;;
32780;SDS011;19136;47.032;15.502;2024-01-30T09:05:03;35.78;;;19.17;;
32780;SDS011;19136;47.032;15.502;2024-01-30T09:07:29;40.28;;;18.50;;
32780;SDS011;19136;47.032;15.502;2024-01-30T09:09:55;32.67;;;18.77;;
32780;SDS011;19136;47.032;15.502;2024-01-30T09:12:21;42.88;;;18.13;;
32780;SDS011;19136;47.032;15.502;2024-01-30T09:14:48;35.72;;;18.77;;
32780;SDS011;19136;47.032;15.502;2024-01-30T09:17:14;36.45;;;18.15;;
32780;SDS011;19136;47.032;15.502;2024-01-30T09:19:40;46.60;;;18.85;;
32780;SDS011;19136;47.032;15.502;2024-01-30T09:22:08;35.33;;;18.63;;
32780;SDS011;19136;47.032;15.502;2024-01-30T09:24:34;36.78;;;18.25;;
32780;SDS011;19136;47.032;15.502;2024-01-30T09:27:00;38.90;;;18.85;;
32780;SDS011;19136;47.032;15.502;2024-01-30T09:29:25;42.22;;;18.70;;
32780;SDS011;19136;47.032;15.502;2024-01-30T09:31:51;43.63;;;17.95;;
32780;SDS011;19136;47.032;15.502;2024-01-30T09:34:17;46.15;;;19.20;;
32780;SDS011;19136;47.032;15.502;2024-01-30T09:36:42;44.30;;;19.83;;
32780;SDS011;19136;47.032;15.502;2024-01-30T09:39:08;44.30;;;19.40;;
32780;SDS011;19136;47.032;15.502;2024-01-30T09:41:33;39.20;;;21.13;;
32780;SDS011;19136;47.032;15.502;2024-01-30T09:44:05;45.25;;;18.77;;
32780;SDS011;19136;47.032;15.502;2024-01-30T09:46:31;43.67;;;18.20;;
32780;SDS011;19136;47.032;15.502;2024-01-30T09:48:57;45.30;;;18.50;;
32780;SDS011;19136;47.032;15.502;2024-01-30T09:51:23;40.28;;;17.45;;
32780;SDS011;19136;47.032;15.502;2024-01-30T09:53:49;36.38;;;17.75;;
32780;SDS011;19136;47.032;15.502;2024-01-30T09:56:14;43.88;;;17.13;;
32780;SDS011;19136;47.032;15.502;2024-01-30T09:58:40;42.85;;;17.70;;
32780;SDS011;19136;47.032;15.502;2024-01-30T10:01:06;40.80;;;17.08;;
32780;SDS011;19136;47.032;15.502;2024-01-30T10:03:31;43.33;;;15.77;;
32780;SDS011;19136;47.032;15.502;2024-01-30T10:05:57;42.10;;;16.08;;
32780;SDS011;19136;47.032;15.502;2024-01-30T10:08:22;38.83;;;17.20;;
32780;SDS011;19136;47.032;15.502;2024-01-30T10:10:48;45.60;;;17.15;;
32780;SDS011;19136;47.032;15.502;2024-01-30T10:13:15;38.15;;;16.17;;
32780;SDS011;19136;47.032;15.502;2024-01-30T10:15:41;41.00;;;16.27;;
32780;SDS011;19136;47.032;15.502;2024-01-30T10:18:07;39.60;;;16.10;;
32780;SDS011;19136;47.032;15.502;2024-01-30T10:20:33;39.60;;;16.27;;
32780;SDS011;19136;47.032;15.502;2024-01-30T10:22:59;34.35;;;14.45;;
32780;SDS011;19136;47.032;15.502;2024-01-30T10:25:28;40.40;;;15.23;;
32780;SDS011;19136;47.032;15.502;2024-01-30T10:27:54;39.58;;;16.17;;
32780;SDS011;19136;47.032;15.502;2024-01-30T10:30:22;38.72;;;16.38;;
32780;SDS011;19136;47.032;15.502;2024-01-30T10:32:48;37.28;;;16.40;;
32780;SDS011;19136;47.032;15.502;2024-01-30T10:35:14;50.70;;;17.75;;
32780;SDS011;19136;47.032;15.502;2024-01-30T10:37:39;35.65;;;15.60;;
32780;SDS011;19136;47.032;15.502;2024-01-30T10:40:05;35.95;;;16.75;;
32780;SDS011;19136;47.032;15.502;2024-01-30T10:42:34;32.65;;;15.93;;
32780;SDS011;19136;47.032;15.502;2024-01-30T10:47:29;29.58;;;14.57;;
32780;SDS011;19136;47.032;15.502;2024-01-30T10:49:55;31.40;;;14.43;;
32780;SDS011;19136;47.032;15.502;2024-01-30T10:52:21;37.72;;;14.68;;
32780;SDS011;19136;47.032;15.502;2024-01-30T10:54:47;30.67;;;13.80;;
32780;SDS011;19136;47.032;15.502;2024-01-30T10:57:18;24.77;;;12.63;;
32780;SDS011;19136;47.032;15.502;2024-01-30T10:59:44;27.40;;;12.40;;
32780;SDS011;19136;47.032;15.502;2024-01-30T11:02:11;33.45;;;16.27;;
32780;SDS011;19136;47.032;15.502;2024-01-30T11:04:37;26.48;;;13.13;;
32780;SDS011;19136;47.032;15.502;2024-01-30T11:07:02;26.35;;;12.75;;
32780;SDS011;19136;47.032;15.502;2024-01-30T11:09:29;28.52;;;12.68;;
32780;SDS011;19136;47.032;15.502;2024-01-30T11:11:58;28.08;;;14.18;;
32780;SDS011;19136;47.032;15.502;2024-01-30T11:14:27;25.50;;;13.45;;
32780;SDS011;19136;47.032;15.502;2024-01-30T11:16:57;29.20;;;12.50;;
32780;SDS011;19136;47.032;15.502;2024-01-30T11:19:23;30.80;;;13.55;;
32780;SDS011;19136;47.032;15.502;2024-01-30T11:21:54;30.13;;;13.15;;
32780;SDS011;19136;47.032;15.502;2024-01-30T11:24:22;28.55;;;13.15;;
32780;SDS011;19136;47.032;15.502;2024-01-30T11:27:01;23.20;;;12.90;;
32780;SDS011;19136;47.032;15.502;2024-01-30T11:29:28;28.90;;;11.60;;
32780;SDS011;19136;47.032;15.502;2024-01-30T11:31:54;31.20;;;11.95;;
32780;SDS011;19136;47.032;15.502;2024-01-30T11:34:23;22.70;;;12.13;;
32780;SDS011;19136;47.032;15.502;2024-01-30T11:36:56;26.10;;;11.30;;
32780;SDS011;19136;47.032;15.502;2024-01-30T11:39:27;26.25;;;12.95;;
32780;SDS011;19136;47.032;15.502;2024-01-30T11:41:53;32.08;;;11.82;;
32780;SDS011;19136;47.032;15.502;2024-01-30T11:44:19;28.17;;;11.35;;
32780;SDS011;19136;47.032;15.502;2024-01-30T11:46:50;24.52;;;11.38;;
32780;SDS011;19136;47.032;15.502;2024-01-30T11:49:16;30.10;;;12.05;;
32780;SDS011;19136;47.032;15.502;2024-01-30T11:51:43;27.33;;;11.75;;
32780;SDS011;19136;47.032;15.502;2024-01-30T11:54:09;26.50;;;11.10;;
32780;SDS011;19136;47.032;15.502;2024-01-30T11:56:34;21.65;;;11.40;;
32780;SDS011;19136;47.032;15.502;2024-01-30T11:59:00;26.42;;;10.80;;
32780;SDS011;19136;47.032;15.502;2024-01-30T12:01:29;26.52;;;10.85;;
32780;SDS011;19136;47.032;15.502;2024-01-30T12:03:55;23.88;;;11.85;;
32780;SDS011;19136;47.032;15.502;2024-01-30T12:06:22;23.98;;;11.27;;
32780;SDS011;19136;47.032;15.502;2024-01-30T12:08:58;24.80;;;11.55;;
32780;SDS011;19136;47.032;15.502;2024-01-30T12:11:24;25.25;;;12.00;;
32780;SDS011;19136;47.032;15.502;2024-01-30T12:13:50;30.90;;;11.40;;
32780;SDS011;19136;47.032;15.502;2024-01-30T12:16:16;18.88;;;10.40;;
32780;SDS011;19136;47.032;15.502;2024-01-30T12:18:42;24.70;;;10.15;;
32780;SDS011;19136;47.032;15.502;2024-01-30T12:21:08;21.67;;;10.57;;
32780;SDS011;19136;47.032;15.502;2024-01-30T12:23:36;21.67;;;10.27;;
32780;SDS011;19136;47.032;15.502;2024-01-30T12:26:02;26.63;;;10.40;;
32780;SDS011;19136;47.032;15.502;2024-01-30T12:28:32;22.15;;;10.50;;
32780;SDS011;19136;47.032;15.502;2024-01-30T12:31:03;19.38;;;10.45;;
32780;SDS011;19136;47.032;15.502;2024-01-30T12:33:29;17.95;;;10.20;;
32780;SDS011;19136;47.032;15.502;2024-01-30T12:36:01;21.40;;;10.60;;
32780;SDS011;19136;47.032;15.502;2024-01-30T12:38:27;24.10;;;10.52;;
32780;SDS011;19136;47.032;15.502;2024-01-30T12:40:56;25.45;;;11.40;;
32780;SDS011;19136;47.032;15.502;2024-01-30T12:43:22;23.20;;;9.93;;
32780;SDS011;19136;47.032;15.502;2024-01-30T12:45:47;19.15;;;10.80;;
32780;SDS011;19136;47.032;15.502;2024-01-30T12:48:13;23.30;;;10.48;;
32780;SDS011;19136;47.032;15.502;2024-01-30T12:50:38;26.30;;;10.95;;
32780;SDS011;19136;47.032;15.502;2024-01-30T12:53:04;24.33;;;10.65;;
32780;SDS011;19136;47.032;15.502;2024-01-30T12:55:31;22.83;;;10.38;;
32780;SDS011;19136;47.032;15.502;2024-01-30T12:57:56;25.98;;;11.35;;
32780;SDS011;19136;47.032;15.502;2024-01-30T13:00:22;22.55;;;10.25;;
32780;SDS011;19136;47.032;15.502;2024-01-30T13:02:48;23.60;;;10.63;;
32780;SDS011;19136;47.032;15.502;2024-01-30T13:05:13;28.73;;;11.27;;
32780;SDS011;19136;47.032;15.502;2024-01-30T13:07:39;18.58;;;10.30;;
32780;SDS011;19136;47.032;15.502;2024-01-30T13:10:04;19.70;;;10.13;;
32780;SDS011;19136;47.032;15.502;2024-01-30T13:12:30;22.77;;;11.00;;
32780;SDS011;19136;47.032;15.502;2024-01-30T13:14:59;21.85;;;11.15;;
32780;SDS011;19136;47.032;15.502;2024-01-30T13:17:26;22.88;;;11.00;;
32780;SDS011;19136;47.032;15.502;2024-01-30T13:19:52;29.60;;;10.68;;
32780;SDS011;19136;47.032;15.502;2024-01-30T13:22:19;20.50;;;11.15;;
32780;SDS011;19136;47.032;15.502;2024-01-30T13:24:47;24.48;;;10.65;;
32780;SDS011;19136;47.032;15.502;2024-01-30T13:27:12;24.35;;;11.13;;
32780;SDS011;19136;47.032;15.502;2024-01-30T13:29:38;21.20;;;11.13;;
32780;SDS011;19136;47.032;15.502;2024-01-30T13:32:04;22.67;;;10.38;;
32780;SDS011;19136;47.032;15.502;2024-01-30T13:34:29;22.25;;;10.80;;
32780;SDS011;19136;47.032;15.502;2024-01-30T13:36:55;25.85;;;10.05;;
32780;SDS011;19136;47.032;15.502;2024-01-30T13:39:20;25.55;;;11.10;;
32780;SDS011;19136;47.032;15.502;2024-01-30T13:41:46;21.73;;;10.93;;
32780;SDS011;19136;47.032;15.502;2024-01-30T13:44:13;24.00;;;11.52;;
32780;SDS011;19136;47.032;15.502;2024-01-30T13:46:39;20.92;;;10.25;;
32780;SDS011;19136;47.032;15.502;2024-01-30T13:49:04;23.92;;;11.48;;
32780;SDS011;19136;47.032;15.502;2024-01-30T13:51:30;21.52;;;10.93;;
32780;SDS011;19136;47.032;15.502;2024-01-30T13:53:55;21.30;;;11.38;;
32780;SDS011;19136;47.032;15.502;2024-01-30T13:56:21;26.45;;;12.77;;
32780;SDS011;19136;47.032;15.502;2024-01-30T13:58:50;29.05;;;12.82;;
32780;SDS011;19136;47.032;15.502;2024-01-30T14:01:16;26.23;;;12.07;;
32780;SDS011;19136;47.032;15.502;2024-01-30T14:03:41;24.00;;;11.75;;
32780;SDS011;19136;47.032;15.502;2024-01-30T14:06:07;31.55;;;11.63;;